Church Point, Louisiana
Current Conditions -  °F | °C
As of 9:15 PM on Monday 26 Jan 2015 (Local Time) from KOPL Reporting Station
Clear Clear  
Wind Chill: 46°   Ceiling: Unl
Heat Index: 46°   Visibility: 10mi
Dew Point: 39°   Wind: 3mph
Humidity: 78%   Direction: 230°SW
Pressure: 30.1"   Gusts: NA
Location:  30.4°N, 92.22°W
Report Text: KOPL 270315Z AUTO 23003KT 10SM CLR 08/04 A3010 RMK AO2 T00770040
Loading
Personal Weather Stations






























Interactive Weather Map New forecast layout! Learn more

10-Day Weather Forecast

Advertisements
Track Severe Weather on mobile